sensor_id;sensor_type;location;lat;lon;timestamp;pressure;altitude;pressure_sealevel;temperature;humidity
69247;BME280;56358;56.328;43.992;2023-04-20T00:01:26;101401.47;;;6.34;58.12
69247;BME280;56358;56.328;43.992;2023-04-20T00:03:27;101401.88;;;6.25;58.34
69247;BME280;56358;56.328;43.992;2023-04-20T00:05:28;101317.94;;;5.76;58.03
69247;BME280;56358;56.328;43.992;2023-04-20T00:07:31;101390.84;;;6.13;58.11
69247;BME280;56358;56.328;43.992;2023-04-20T00:09:32;101406.41;;;6.23;58.09
69247;BME280;56358;56.328;43.992;2023-04-20T00:11:33;101336.34;;;5.81;58.09
69247;BME280;56358;56.328;43.992;2023-04-20T00:13:34;101419.38;;;6.30;57.92
69247;BME280;56358;56.328;43.992;2023-04-20T00:15:34;101326.84;;;5.75;58.12
69247;BME280;56358;56.328;43.992;2023-04-20T00:17:36;101372.56;;;6.06;58.08
69247;BME280;56358;56.328;43.992;2023-04-20T00:19:38;101416.78;;;6.29;57.96
69247;BME280;56358;56.328;43.992;2023-04-20T00:21:38;101402.97;;;6.20;57.84
69247;BME280;56358;56.328;43.992;2023-04-20T00:23:40;101415.97;;;6.27;58.11
69247;BME280;56358;56.328;43.992;2023-04-20T00:25:40;101408.94;;;6.26;58.31
69247;BME280;56358;56.328;43.992;2023-04-20T00:27:41;101400.16;;;6.24;58.65
69247;BME280;56358;56.328;43.992;2023-04-20T00:29:41;101323.44;;;5.71;58.44
69247;BME280;56358;56.328;43.992;2023-04-20T00:31:42;101322.66;;;5.69;58.62
69247;BME280;56358;56.328;43.992;2023-04-20T00:33:43;101405.69;;;6.19;58.77
69247;BME280;56358;56.328;43.992;2023-04-20T00:35:44;101415.47;;;6.18;58.62
69247;BME280;56358;56.328;43.992;2023-04-20T00:37:44;101413.72;;;6.17;59.01
69247;BME280;56358;56.328;43.992;2023-04-20T00:39:45;101405.09;;;6.12;59.37
69247;BME280;56358;56.328;43.992;2023-04-20T00:41:46;101387.00;;;6.00;59.44
69247;BME280;56358;56.328;43.992;2023-04-20T00:43:51;101411.28;;;6.13;59.20
69247;BME280;56358;56.328;43.992;2023-04-20T00:45:52;101409.47;;;6.13;59.26
69247;BME280;56358;56.328;43.992;2023-04-20T00:47:53;101416.53;;;6.14;59.31
69247;BME280;56358;56.328;43.992;2023-04-20T00:49:53;101405.81;;;6.16;59.43
69247;BME280;56358;56.328;43.992;2023-04-20T00:51:59;101391.84;;;6.11;59.34
69247;BME280;56358;56.328;43.992;2023-04-20T00:54:00;101385.88;;;6.06;59.17
69247;BME280;56358;56.328;43.992;2023-04-20T00:56:01;101404.28;;;6.10;59.22
69247;BME280;56358;56.328;43.992;2023-04-20T00:58:02;101377.31;;;5.99;59.07
69247;BME280;56358;56.328;43.992;2023-04-20T01:00:03;101381.78;;;5.97;59.19
69247;BME280;56358;56.328;43.992;2023-04-20T01:02:06;101399.03;;;6.09;59.22
69247;BME280;56358;56.328;43.992;2023-04-20T01:04:08;101373.13;;;5.92;59.26
69247;BME280;56358;56.328;43.992;2023-04-20T01:06:09;101410.75;;;6.04;59.21
69247;BME280;56358;56.328;43.992;2023-04-20T01:08:10;101389.25;;;6.09;59.26
69247;BME280;56358;56.328;43.992;2023-04-20T01:10:11;101310.47;;;5.64;59.48
69247;BME280;56358;56.328;43.992;2023-04-20T01:12:11;101391.78;;;6.12;59.33
69247;BME280;56358;56.328;43.992;2023-04-20T01:14:12;101385.72;;;6.09;59.29
69247;BME280;56358;56.328;43.992;2023-04-20T01:16:13;101379.56;;;6.08;59.17
69247;BME280;56358;56.328;43.992;2023-04-20T01:18:13;101338.09;;;5.82;59.27
69247;BME280;56358;56.328;43.992;2023-04-20T01:20:14;101386.66;;;6.08;59.19
69247;BME280;56358;56.328;43.992;2023-04-20T01:22:17;101377.75;;;6.09;59.57
69247;BME280;56358;56.328;43.992;2023-04-20T01:24:19;101378.06;;;6.01;60.33
69247;BME280;56358;56.328;43.992;2023-04-20T01:26:21;101280.91;;;5.51;60.16
69247;BME280;56358;56.328;43.992;2023-04-20T01:28:22;101371.59;;;6.07;60.25
69247;BME280;56358;56.328;43.992;2023-04-20T01:30:23;101378.59;;;6.09;60.38
69247;BME280;56358;56.328;43.992;2023-04-20T01:32:24;101386.59;;;6.09;60.45
69247;BME280;56358;56.328;43.992;2023-04-20T01:34:25;101371.03;;;6.00;60.86
69247;BME280;56358;56.328;43.992;2023-04-20T01:36:26;101358.09;;;5.91;60.82
69247;BME280;56358;56.328;43.992;2023-04-20T01:38:27;101371.97;;;5.99;61.05
69247;BME280;56358;56.328;43.992;2023-04-20T01:40:27;101374.66;;;5.97;61.07
69247;BME280;56358;56.328;43.992;2023-04-20T01:42:28;101373.06;;;5.93;60.79
69247;BME280;56358;56.328;43.992;2023-04-20T01:44:29;101370.59;;;5.88;60.62
69247;BME280;56358;56.328;43.992;2023-04-20T01:46:29;101309.09;;;5.55;60.19
69247;BME280;56358;56.328;43.992;2023-04-20T01:48:31;101352.91;;;5.87;60.17
69247;BME280;56358;56.328;43.992;2023-04-20T01:50:32;101363.28;;;5.94;60.31
69247;BME280;56358;56.328;43.992;2023-04-20T01:52:32;101364.44;;;5.88;60.31
69247;BME280;56358;56.328;43.992;2023-04-20T01:54:33;101371.53;;;5.87;60.08
69247;BME280;56358;56.328;43.992;2023-04-20T01:56:34;101356.72;;;5.82;60.08
69247;BME280;56358;56.328;43.992;2023-04-20T01:58:35;101353.31;;;5.78;60.17
69247;BME280;56358;56.328;43.992;2023-04-20T02:00:36;101361.81;;;5.86;60.29
69247;BME280;56358;56.328;43.992;2023-04-20T02:02:37;101368.09;;;5.85;60.15
69247;BME280;56358;56.328;43.992;2023-04-20T02:04:38;101371.59;;;5.86;60.18
69247;BME280;56358;56.328;43.992;2023-04-20T02:06:38;101378.66;;;5.87;60.08
69247;BME280;56358;56.328;43.992;2023-04-20T02:08:40;101359.75;;;5.93;59.93
69247;BME280;56358;56.328;43.992;2023-04-20T02:10:40;101370.03;;;6.02;59.33
69247;BME280;56358;56.328;43.992;2023-04-20T02:12:41;101364.22;;;6.13;58.82
69247;BME280;56358;56.328;43.992;2023-04-20T02:14:42;101369.69;;;6.29;58.20
69247;BME280;56358;56.328;43.992;2023-04-20T02:16:43;101299.16;;;6.00;57.54
69247;BME280;56358;56.328;43.992;2023-04-20T02:18:44;101355.25;;;6.54;57.29
69247;BME280;56358;56.328;43.992;2023-04-20T02:20:45;101356.50;;;6.66;57.03
69247;BME280;56358;56.328;43.992;2023-04-20T02:22:46;101352.66;;;6.71;56.36
69247;BME280;56358;56.328;43.992;2023-04-20T02:24:47;101362.66;;;6.85;56.26
69247;BME280;56358;56.328;43.992;2023-04-20T02:26:48;101291.59;;;6.48;56.28
69247;BME280;56358;56.328;43.992;2023-04-20T02:28:48;101349.25;;;6.87;56.32
69247;BME280;56358;56.328;43.992;2023-04-20T02:30:49;101368.25;;;6.98;56.50
69247;BME280;56358;56.328;43.992;2023-04-20T02:32:50;101364.50;;;7.02;56.52
69247;BME280;56358;56.328;43.992;2023-04-20T02:34:51;101365.28;;;7.04;56.66
69247;BME280;56358;56.328;43.992;2023-04-20T02:36:52;101366.25;;;7.03;56.87
69247;BME280;56358;56.328;43.992;2023-04-20T02:38:53;101284.34;;;6.51;56.90
69247;BME280;56358;56.328;43.992;2023-04-20T02:40:53;101366.25;;;7.03;56.93
69247;BME280;56358;56.328;43.992;2023-04-20T02:42:54;101367.31;;;6.99;57.26
69247;BME280;56358;56.328;43.992;2023-04-20T02:44:55;101387.78;;;6.99;57.19
69247;BME280;56358;56.328;43.992;2023-04-20T02:46:56;101336.44;;;6.76;57.08
69247;BME280;56358;56.328;43.992;2023-04-20T02:48:56;101363.00;;;6.97;57.25
69247;BME280;56358;56.328;43.992;2023-04-20T02:50:57;101339.53;;;6.67;57.58
69247;BME280;56358;56.328;43.992;2023-04-20T02:52:58;101365.81;;;6.94;57.54
69247;BME280;56358;56.328;43.992;2023-04-20T02:54:59;101369.44;;;6.93;57.65
69247;BME280;56358;56.328;43.992;2023-04-20T02:56:59;101330.63;;;6.68;57.84
69247;BME280;56358;56.328;43.992;2023-04-20T02:59:01;101298.66;;;6.49;57.93
69247;BME280;56358;56.328;43.992;2023-04-20T03:01:02;101368.78;;;6.87;58.30
69247;BME280;56358;56.328;43.992;2023-04-20T03:03:03;101340.06;;;6.75;58.15
69247;BME280;56358;56.328;43.992;2023-04-20T03:05:04;101342.56;;;6.78;58.00
69247;BME280;56358;56.328;43.992;2023-04-20T03:07:05;101322.47;;;6.71;58.30
69247;BME280;56358;56.328;43.992;2023-04-20T03:09:06;101344.91;;;6.84;58.35
69247;BME280;56358;56.328;43.992;2023-04-20T03:11:08;101357.28;;;7.04;58.38
69247;BME280;56358;56.328;43.992;2023-04-20T03:13:08;101364.06;;;7.12;58.29
69247;BME280;56358;56.328;43.992;2023-04-20T03:15:09;101345.59;;;7.07;58.27
69247;BME280;56358;56.328;43.992;2023-04-20T03:17:10;101366.19;;;7.22;58.24
69247;BME280;56358;56.328;43.992;2023-04-20T03:19:11;101292.25;;;6.90;58.15
69247;BME280;56358;56.328;43.992;2023-04-20T03:21:12;101366.44;;;7.35;57.99
69247;BME280;56358;56.328;43.992;2023-04-20T03:23:13;101348.06;;;7.29;57.93
69247;BME280;56358;56.328;43.992;2023-04-20T03:25:14;101362.91;;;7.52;57.32
69247;BME280;56358;56.328;43.992;2023-04-20T03:27:15;101368.78;;;7.59;57.42
69247;BME280;56358;56.328;43.992;2023-04-20T03:29:16;101352.22;;;7.52;57.15
69247;BME280;56358;56.328;43.992;2023-04-20T03:31:17;101358.44;;;7.70;56.61
69247;BME280;56358;56.328;43.992;2023-04-20T03:33:17;101363.91;;;7.85;56.09
69247;BME280;56358;56.328;43.992;2023-04-20T03:35:18;101328.44;;;7.65;56.22
69247;BME280;56358;56.328;43.992;2023-04-20T03:37:20;101357.06;;;7.97;56.07
69247;BME280;56358;56.328;43.992;2023-04-20T03:39:21;101293.69;;;7.67;55.69
69247;BME280;56358;56.328;43.992;2023-04-20T03:41:21;101365.03;;;8.14;55.70
69247;BME280;56358;56.328;43.992;2023-04-20T03:43:22;101357.50;;;8.22;55.55
69247;BME280;56358;56.328;43.992;2023-04-20T03:45:23;101358.97;;;8.28;55.49
69247;BME280;56358;56.328;43.992;2023-04-20T03:47:24;101343.63;;;8.32;55.20
69247;BME280;56358;56.328;43.992;2023-04-20T03:49:24;101352.19;;;8.38;55.12
69247;BME280;56358;56.328;43.992;2023-04-20T03:51:25;101364.09;;;8.49;54.93
69247;BME280;56358;56.328;43.992;2023-04-20T03:53:26;101358.44;;;8.55;54.95
69247;BME280;56358;56.328;43.992;2023-04-20T03:55:28;101276.84;;;8.16;54.81
69247;BME280;56358;56.328;43.992;2023-04-20T03:57:29;101328.50;;;8.48;54.61
69247;BME280;56358;56.328;43.992;2023-04-20T03:59:29;101343.00;;;8.76;54.14
69247;BME280;56358;56.328;43.992;2023-04-20T04:01:30;101284.97;;;8.46;54.08
69247;BME280;56358;56.328;43.992;2023-04-20T04:03:32;101290.66;;;8.56;53.93
69247;BME280;56358;56.328;43.992;2023-04-20T04:05:33;101349.59;;;9.01;53.73
69247;BME280;56358;56.328;43.992;2023-04-20T04:07:33;101271.44;;;8.65;53.39
69247;BME280;56358;56.328;43.992;2023-04-20T04:09:34;101324.59;;;9.02;53.19
69247;BME280;56358;56.328;43.992;2023-04-20T04:11:35;101359.41;;;9.32;52.86
69247;BME280;56358;56.328;43.992;2023-04-20T04:13:35;101322.19;;;9.28;52.56
69247;BME280;56358;56.328;43.992;2023-04-20T04:15:36;101351.16;;;9.51;52.16
69247;BME280;56358;56.328;43.992;2023-04-20T04:17:37;101334.03;;;9.54;51.86
69247;BME280;56358;56.328;43.992;2023-04-20T04:19:38;101337.31;;;9.73;51.59
69247;BME280;56358;56.328;43.992;2023-04-20T04:21:39;101347.38;;;9.84;51.32
69247;BME280;56358;56.328;43.992;2023-04-20T04:23:40;101331.03;;;9.89;51.02
69247;BME280;56358;56.328;43.992;2023-04-20T04:25:44;101268.56;;;9.60;50.86
69247;BME280;56358;56.328;43.992;2023-04-20T04:27:45;101267.78;;;9.57;50.53
69247;BME280;56358;56.328;43.992;2023-04-20T04:29:46;101338.41;;;10.00;50.52
69247;BME280;56358;56.328;43.992;2023-04-20T04:31:49;101351.50;;;10.04;50.55
69247;BME280;56358;56.328;43.992;2023-04-20T04:33:50;101333.72;;;10.03;50.24
69247;BME280;56358;56.328;43.992;2023-04-20T04:35:51;101335.72;;;10.00;50.25
69247;BME280;56358;56.328;43.992;2023-04-20T04:37:52;101326.34;;;10.07;50.20
69247;BME280;56358;56.328;43.992;2023-04-20T04:39:53;101343.19;;;10.09;50.00
69247;BME280;56358;56.328;43.992;2023-04-20T04:41:54;101330.19;;;10.17;50.01
69247;BME280;56358;56.328;43.992;2023-04-20T04:43:55;101332.19;;;10.28;49.61
69247;BME280;56358;56.328;43.992;2023-04-20T04:46:05;101329.63;;;10.41;49.55
69247;BME280;56358;56.328;43.992;2023-04-20T04:48:07;101322.16;;;10.46;48.96
69247;BME280;56358;56.328;43.992;2023-04-20T04:50:11;101329.41;;;10.59;48.88
69247;BME280;56358;56.328;43.992;2023-04-20T04:52:12;101320.44;;;10.72;48.47
69247;BME280;56358;56.328;43.992;2023-04-20T04:54:13;101318.69;;;10.86;48.26
69247;BME280;56358;56.328;43.992;2023-04-20T04:56:13;101313.38;;;10.99;47.65
69247;BME280;56358;56.328;43.992;2023-04-20T04:58:14;101316.19;;;11.10;47.77
69247;BME280;56358;56.328;43.992;2023-04-20T05:00:15;101320.09;;;11.19;47.48
69247;BME280;56358;56.328;43.992;2023-04-20T05:02:16;101315.06;;;11.27;47.07
69247;BME280;56358;56.328;43.992;2023-04-20T05:04:17;101314.56;;;11.35;46.76
69247;BME280;56358;56.328;43.992;2023-04-20T05:06:17;101310.59;;;11.40;46.60
69247;BME280;56358;56.328;43.992;2023-04-20T05:08:19;101314.56;;;11.48;46.25
69247;BME280;56358;56.328;43.992;2023-04-20T05:10:20;101214.50;;;10.93;46.25
69247;BME280;56358;56.328;43.992;2023-04-20T05:12:21;101312.53;;;11.51;46.10
69247;BME280;56358;56.328;43.992;2023-04-20T05:14:22;101306.44;;;11.49;46.43
69247;BME280;56358;56.328;43.992;2023-04-20T05:16:22;101242.38;;;11.17;46.41
69247;BME280;56358;56.328;43.992;2023-04-20T05:18:23;101294.69;;;11.50;46.46
69247;BME280;56358;56.328;43.992;2023-04-20T05:20:24;101307.38;;;11.61;46.45
69247;BME280;56358;56.328;43.992;2023-04-20T05:22:25;101299.13;;;11.64;46.14
69247;BME280;56358;56.328;43.992;2023-04-20T05:24:26;101289.88;;;11.68;45.26
69247;BME280;56358;56.328;43.992;2023-04-20T05:26:26;101295.66;;;11.88;45.27
69247;BME280;56358;56.328;43.992;2023-04-20T05:28:27;101303.31;;;11.94;45.04
69247;BME280;56358;56.328;43.992;2023-04-20T05:30:28;101299.59;;;11.97;44.37
69247;BME280;56358;56.328;43.992;2023-04-20T05:32:28;101299.34;;;12.00;44.46
69247;BME280;56358;56.328;43.992;2023-04-20T05:34:30;101286.47;;;12.05;44.37
69247;BME280;56358;56.328;43.992;2023-04-20T05:36:30;101306.97;;;12.19;43.70
69247;BME280;56358;56.328;43.992;2023-04-20T05:38:33;101276.88;;;12.14;43.16
69247;BME280;56358;56.328;43.992;2023-04-20T05:40:33;101303.38;;;12.44;43.26
69247;BME280;56358;56.328;43.992;2023-04-20T05:42:34;101325.09;;;12.54;43.58
69247;BME280;56358;56.328;43.992;2023-04-20T05:44:35;101262.41;;;12.40;43.12
69247;BME280;56358;56.328;43.992;2023-04-20T05:46:36;101303.19;;;12.71;43.09
69247;BME280;56358;56.328;43.992;2023-04-20T05:48:37;101266.38;;;12.35;41.68
69247;BME280;56358;56.328;43.992;2023-04-20T05:50:37;101223.97;;;12.14;42.23
69247;BME280;56358;56.328;43.992;2023-04-20T05:52:38;101296.59;;;12.38;41.93
69247;BME280;56358;56.328;43.992;2023-04-20T05:54:39;101274.50;;;12.22;42.00
69247;BME280;56358;56.328;43.992;2023-04-20T05:56:39;101286.56;;;12.16;41.85
69247;BME280;56358;56.328;43.992;2023-04-20T05:58:40;101279.88;;;12.22;42.13
69247;BME280;56358;56.328;43.992;2023-04-20T06:00:41;101291.91;;;12.29;42.02
69247;BME280;56358;56.328;43.992;2023-04-20T06:02:42;101295.97;;;12.35;41.88
69247;BME280;56358;56.328;43.992;2023-04-20T06:04:43;101279.41;;;12.41;42.15
69247;BME280;56358;56.328;43.992;2023-04-20T06:06:44;101302.44;;;12.69;42.07
69247;BME280;56358;56.328;43.992;2023-04-20T06:08:44;101226.66;;;12.51;41.85
69247;BME280;56358;56.328;43.992;2023-04-20T06:10:45;101284.75;;;13.02;41.66
69247;BME280;56358;56.328;43.992;2023-04-20T06:12:46;101275.47;;;13.06;41.78
69247;BME280;56358;56.328;43.992;2023-04-20T06:14:47;101275.16;;;13.22;41.38
69247;BME280;56358;56.328;43.992;2023-04-20T06:16:47;101214.75;;;13.02;41.08
69247;BME280;56358;56.328;43.992;2023-04-20T06:18:48;101288.34;;;13.50;41.23
69247;BME280;56358;56.328;43.992;2023-04-20T06:20:49;101277.59;;;13.61;41.26
69247;BME280;56358;56.328;43.992;2023-04-20T06:22:50;101278.59;;;13.71;41.10
69247;BME280;56358;56.328;43.992;2023-04-20T06:24:51;101266.13;;;13.70;40.22
69247;BME280;56358;56.328;43.992;2023-04-20T06:26:52;101269.41;;;13.74;40.60
69247;BME280;56358;56.328;43.992;2023-04-20T06:28:52;101289.03;;;13.99;40.63
69247;BME280;56358;56.328;43.992;2023-04-20T06:30:53;101274.06;;;14.06;41.15
69247;BME280;56358;56.328;43.992;2023-04-20T06:32:54;101275.78;;;14.18;40.92
69247;BME280;56358;56.328;43.992;2023-04-20T06:34:55;101222.88;;;13.95;40.46
69247;BME280;56358;56.328;43.992;2023-04-20T06:36:56;101272.81;;;14.33;40.14
69247;BME280;56358;56.328;43.992;2023-04-20T06:38:57;101261.53;;;14.39;39.83
69247;BME280;56358;56.328;43.992;2023-04-20T06:40:57;101281.91;;;14.43;39.44
69247;BME280;56358;56.328;43.992;2023-04-20T06:43:01;101272.44;;;14.49;38.23
69247;BME280;56358;56.328;43.992;2023-04-20T06:45:05;101190.88;;;14.01;38.91
69247;BME280;56358;56.328;43.992;2023-04-20T06:47:07;101239.22;;;14.48;38.96
69247;BME280;56358;56.328;43.992;2023-04-20T06:49:07;101272.16;;;14.74;37.77
69247;BME280;56358;56.328;43.992;2023-04-20T06:51:08;101259.59;;;14.85;37.70
69247;BME280;56358;56.328;43.992;2023-04-20T06:53:09;101251.44;;;14.75;34.52
69247;BME280;56358;56.328;43.992;2023-04-20T06:55:10;101263.50;;;14.92;31.54
69247;BME280;56358;56.328;43.992;2023-04-20T06:57:10;101257.78;;;15.06;31.00
69247;BME280;56358;56.328;43.992;2023-04-20T06:59:11;101252.66;;;15.03;31.33
69247;BME280;56358;56.328;43.992;2023-04-20T07:01:15;101242.06;;;15.12;30.55
69247;BME280;56358;56.328;43.992;2023-04-20T07:03:16;101181.50;;;14.72;29.74
69247;BME280;56358;56.328;43.992;2023-04-20T07:05:18;101256.75;;;15.19;29.11
69247;BME280;56358;56.328;43.992;2023-04-20T07:07:19;101185.19;;;14.92;28.84
69247;BME280;56358;56.328;43.992;2023-04-20T07:09:19;101231.72;;;15.17;27.87
69247;BME280;56358;56.328;43.992;2023-04-20T07:11:20;101246.34;;;15.35;28.11
69247;BME280;56358;56.328;43.992;2023-04-20T07:13:21;101230.16;;;15.35;28.94
69247;BME280;56358;56.328;43.992;2023-04-20T07:15:21;101240.41;;;15.41;28.50
69247;BME280;56358;56.328;43.992;2023-04-20T07:17:26;101233.50;;;15.49;28.67
69247;BME280;56358;56.328;43.992;2023-04-20T07:19:27;101205.50;;;15.29;28.41
69247;BME280;56358;56.328;43.992;2023-04-20T07:21:28;101250.50;;;15.61;28.14
69247;BME280;56358;56.328;43.992;2023-04-20T07:23:30;101228.88;;;15.61;28.21
69247;BME280;56358;56.328;43.992;2023-04-20T07:25:30;101240.44;;;15.72;28.31
69247;BME280;56358;56.328;43.992;2023-04-20T07:27:36;101222.63;;;15.70;27.71
69247;BME280;56358;56.328;43.992;2023-04-20T07:29:37;101258.69;;;16.01;27.01
69247;BME280;56358;56.328;43.992;2023-04-20T07:31:38;101225.25;;;16.02;26.67
69247;BME280;56358;56.328;43.992;2023-04-20T07:33:39;101246.81;;;16.23;26.73
69247;BME280;56358;56.328;43.992;2023-04-20T07:35:39;101240.06;;;16.18;25.08
69247;BME280;56358;56.328;43.992;2023-04-20T07:37:40;101221.59;;;16.23;24.59
69247;BME280;56358;56.328;43.992;2023-04-20T07:39:41;101234.19;;;16.53;24.38
69247;BME280;56358;56.328;43.992;2023-04-20T07:41:42;101230.50;;;16.54;23.75
69247;BME280;56358;56.328;43.992;2023-04-20T07:43:43;101230.78;;;16.61;23.84
69247;BME280;56358;56.328;43.992;2023-04-20T07:45:44;101175.00;;;16.19;22.40
69247;BME280;56358;56.328;43.992;2023-04-20T07:47:44;101097.41;;;15.90;22.56
69247;BME280;56358;56.328;43.992;2023-04-20T07:49:46;101208.84;;;16.84;22.71
69247;BME280;56358;56.328;43.992;2023-04-20T07:51:47;101210.88;;;17.01;23.43
69247;BME280;56358;56.328;43.992;2023-04-20T07:53:48;101215.97;;;17.14;22.52
69247;BME280;56358;56.328;43.992;2023-04-20T07:55:48;101197.72;;;17.06;21.66
69247;BME280;56358;56.328;43.992;2023-04-20T07:57:50;101217.09;;;17.31;21.61
69247;BME280;56358;56.328;43.992;2023-04-20T07:59:51;101223.97;;;17.25;20.47
69247;BME280;56358;56.328;43.992;2023-04-20T08:01:52;101205.81;;;17.36;20.45
69247;BME280;56358;56.328;43.992;2023-04-20T08:03:52;101196.00;;;17.15;19.63
69247;BME280;56358;56.328;43.992;2023-04-20T08:05:54;101211.53;;;17.13;18.93
69247;BME280;56358;56.328;43.992;2023-04-20T08:07:55;101195.72;;;17.18;20.34
69247;BME280;56358;56.328;43.992;2023-04-20T08:09:56;101082.44;;;16.65;21.53
69247;BME280;56358;56.328;43.992;2023-04-20T08:11:57;101199.09;;;17.40;21.27
69247;BME280;56358;56.328;43.992;2023-04-20T08:13:58;101201.38;;;17.45;21.22
69247;BME280;56358;56.328;43.992;2023-04-20T08:15:59;101200.78;;;17.41;20.69
69247;BME280;56358;56.328;43.992;2023-04-20T08:17:59;101191.25;;;17.37;20.10
69247;BME280;56358;56.328;43.992;2023-04-20T08:20:00;101195.16;;;17.15;20.85
69247;BME280;56358;56.328;43.992;2023-04-20T08:22:01;101180.44;;;17.27;20.63
69247;BME280;56358;56.328;43.992;2023-04-20T08:24:02;101184.28;;;17.34;20.72
69247;BME280;56358;56.328;43.992;2023-04-20T08:26:04;101142.81;;;17.24;20.95
69247;BME280;56358;56.328;43.992;2023-04-20T08:28:04;101183.50;;;17.52;20.48
69247;BME280;56358;56.328;43.992;2023-04-20T08:30:06;101117.41;;;17.25;20.33
69247;BME280;56358;56.328;43.992;2023-04-20T08:32:10;101184.06;;;17.55;20.16
69247;BME280;56358;56.328;43.992;2023-04-20T08:34:12;101175.53;;;17.50;20.49
69247;BME280;56358;56.328;43.992;2023-04-20T08:36:12;101168.22;;;17.61;20.56
69247;BME280;56358;56.328;43.992;2023-04-20T08:38:13;101170.19;;;17.68;19.90
69247;BME280;56358;56.328;43.992;2023-04-20T08:40:16;101174.41;;;17.81;19.92
69247;BME280;56358;56.328;43.992;2023-04-20T08:42:17;101166.66;;;17.96;19.87
69247;BME280;56358;56.328;43.992;2023-04-20T08:44:18;101157.94;;;17.92;19.60
69247;BME280;56358;56.328;43.992;2023-04-20T08:46:19;101180.56;;;18.11;19.90
69247;BME280;56358;56.328;43.992;2023-04-20T08:48:20;101172.34;;;18.20;19.65
69247;BME280;56358;56.328;43.992;2023-04-20T08:50:21;101171.56;;;18.10;20.26
69247;BME280;56358;56.328;43.992;2023-04-20T08:52:22;101100.31;;;17.80;19.80
69247;BME280;56358;56.328;43.992;2023-04-20T08:54:23;101158.41;;;18.33;19.72
69247;BME280;56358;56.328;43.992;2023-04-20T08:56:41;101168.75;;;18.48;19.54
69247;BME280;56358;56.328;43.992;2023-04-20T08:58:41;101154.63;;;18.62;19.93
69247;BME280;56358;56.328;43.992;2023-04-20T09:00:46;101128.63;;;18.59;20.32
69247;BME280;56358;56.328;43.992;2023-04-20T09:02:52;101112.50;;;18.58;19.37
69247;BME280;56358;56.328;43.992;2023-04-20T09:05:03;101033.09;;;18.38;19.06
69247;BME280;56358;56.328;43.992;2023-04-20T09:07:16;101143.72;;;19.24;18.89
69247;BME280;56358;56.328;43.992;2023-04-20T09:09:19;101165.47;;;19.51;18.91
69247;BME280;56358;56.328;43.992;2023-04-20T09:11:24;101077.13;;;19.20;19.07
69247;BME280;56358;56.328;43.992;2023-04-20T09:13:25;101145.50;;;20.03;19.42
69247;BME280;56358;56.328;43.992;2023-04-20T09:15:30;101103.50;;;20.05;18.22
69247;BME280;56358;56.328;43.992;2023-04-20T09:17:33;101076.09;;;20.07;17.60
69247;BME280;56358;56.328;43.992;2023-04-20T09:19:34;101151.72;;;21.04;17.45
69247;BME280;56358;56.328;43.992;2023-04-20T09:21:35;101136.50;;;21.34;16.75
69247;BME280;56358;56.328;43.992;2023-04-20T09:23:35;101085.50;;;20.70;17.78
69247;BME280;56358;56.328;43.992;2023-04-20T09:25:36;101004.44;;;19.82;18.47
69247;BME280;56358;56.328;43.992;2023-04-20T09:27:37;101138.34;;;20.10;19.11
69247;BME280;56358;56.328;43.992;2023-04-20T09:29:38;101137.34;;;19.68;19.27
69247;BME280;56358;56.328;43.992;2023-04-20T09:31:38;101134.25;;;19.29;20.24
69247;BME280;56358;56.328;43.992;2023-04-20T09:33:39;101085.41;;;18.66;20.42
69247;BME280;56358;56.328;43.992;2023-04-20T09:35:41;101120.53;;;18.68;21.04
69247;BME280;56358;56.328;43.992;2023-04-20T09:37:47;101133.28;;;18.49;20.69
69247;BME280;56358;56.328;43.992;2023-04-20T09:39:48;101057.88;;;17.89;20.95
69247;BME280;56358;56.328;43.992;2023-04-20T09:41:50;101105.19;;;18.40;20.65
69247;BME280;56358;56.328;43.992;2023-04-20T09:43:51;101119.84;;;18.30;20.63
69247;BME280;56358;56.328;43.992;2023-04-20T09:45:53;101114.97;;;18.15;19.82
69247;BME280;56358;56.328;43.992;2023-04-20T09:47:56;101123.66;;;18.01;20.05
69247;BME280;56358;56.328;43.992;2023-04-20T09:49:57;101037.25;;;17.32;20.11
69247;BME280;56358;56.328;43.992;2023-04-20T09:52:01;101118.66;;;17.68;20.42
69247;BME280;56358;56.328;43.992;2023-04-20T09:54:04;101096.22;;;17.48;20.71
69247;BME280;56358;56.328;43.992;2023-04-20T09:56:05;101056.88;;;17.06;20.79
69247;BME280;56358;56.328;43.992;2023-04-20T09:58:06;101030.25;;;16.82;20.99
69247;BME280;56358;56.328;43.992;2023-04-20T10:00:07;101039.72;;;16.68;21.32
69247;BME280;56358;56.328;43.992;2023-04-20T10:02:12;101117.19;;;17.08;21.56
69247;BME280;56358;56.328;43.992;2023-04-20T10:04:14;101067.78;;;16.77;22.14
69247;BME280;56358;56.328;43.992;2023-04-20T10:06:23;101036.00;;;16.59;21.93
69247;BME280;56358;56.328;43.992;2023-04-20T10:08:26;101099.25;;;16.88;22.00
69247;BME280;56358;56.328;43.992;2023-04-20T10:10:26;101103.09;;;16.95;21.89
69247;BME280;56358;56.328;43.992;2023-04-20T10:12:27;101028.50;;;16.53;21.97
69247;BME280;56358;56.328;43.992;2023-04-20T10:14:28;101049.97;;;16.65;21.94
69247;BME280;56358;56.328;43.992;2023-04-20T10:16:30;101087.84;;;16.94;21.99
69247;BME280;56358;56.328;43.992;2023-04-20T10:18:31;101066.31;;;16.83;21.94
69247;BME280;56358;56.328;43.992;2023-04-20T10:20:31;101092.13;;;16.97;22.49
69247;BME280;56358;56.328;43.992;2023-04-20T10:22:32;101017.50;;;16.55;22.30
69247;BME280;56358;56.328;43.992;2023-04-20T10:24:33;101069.56;;;16.86;22.02
69247;BME280;56358;56.328;43.992;2023-04-20T10:26:38;101063.63;;;16.83;22.16
69247;BME280;56358;56.328;43.992;2023-04-20T10:28:40;101079.88;;;16.92;22.63
69247;BME280;56358;56.328;43.992;2023-04-20T10:30:49;101085.69;;;16.88;22.60